createdAt,value
2019-04-07T00:00:57.784Z,5.07
2019-04-07T00:01:58.294Z,5.06
2019-04-07T00:02:57.719Z,5.06
2019-04-07T00:03:57.710Z,5.06
2019-04-07T00:05:09.325Z,5.04
2019-04-07T00:05:57.717Z,5.03
2019-04-07T00:06:57.779Z,5.02
2019-04-07T00:07:57.711Z,5.04
2019-04-07T00:08:57.713Z,5.02
2019-04-07T00:09:57.711Z,5.02
2019-04-07T00:10:57.882Z,4.96
2019-04-07T00:11:57.716Z,4.98
2019-04-07T00:12:57.783Z,4.99
2019-04-07T00:13:57.952Z,5.02
2019-04-07T00:14:57.719Z,5.06
2019-04-07T00:15:57.846Z,5.07
2019-04-07T00:16:57.749Z,5.09
2019-04-07T00:17:57.819Z,5.04
2019-04-07T00:18:57.817Z,5.00
2019-04-07T00:19:57.822Z,4.96
2019-04-07T00:20:58.482Z,4.91
2019-04-07T00:21:57.730Z,4.88
2019-04-07T00:22:58.231Z,4.89
2019-04-07T00:23:57.966Z,4.87
2019-04-07T00:24:58.304Z,4.85
2019-04-07T00:25:57.804Z,4.84
2019-04-07T00:26:57.847Z,4.85
2019-04-07T00:27:57.697Z,4.82
2019-04-07T00:28:57.840Z,4.81
2019-04-07T00:29:57.932Z,4.84
2019-04-07T00:30:57.740Z,4.88
2019-04-07T00:31:57.845Z,4.95
2019-04-07T00:32:58.380Z,4.92
2019-04-07T00:33:58.212Z,4.99
2019-04-07T00:34:57.788Z,5.00
2019-04-07T00:35:58.175Z,4.96
2019-04-07T00:36:57.824Z,4.99
2019-04-07T00:37:58.306Z,4.93
2019-04-07T00:38:57.799Z,4.91
2019-04-07T00:39:57.817Z,4.91
2019-04-07T00:40:57.801Z,4.89
2019-04-07T00:41:58.280Z,4.88
2019-04-07T00:42:58.324Z,4.84
2019-04-07T00:43:58.172Z,4.84
2019-04-07T00:44:57.810Z,4.81
2019-04-07T00:45:58.009Z,4.80
2019-04-07T00:46:57.741Z,4.75
2019-04-07T00:47:57.748Z,4.71
2019-04-07T00:48:57.868Z,4.70
2019-04-07T00:49:57.855Z,4.67
2019-04-07T00:50:57.829Z,4.67
2019-04-07T00:51:58.406Z,4.66
2019-04-07T00:52:57.770Z,4.64
2019-04-07T00:53:57.772Z,4.63
2019-04-07T00:54:57.778Z,4.69
2019-04-07T00:55:57.796Z,4.71
2019-04-07T00:56:57.834Z,4.71
2019-04-07T00:57:58.371Z,4.74
2019-04-07T00:58:57.843Z,4.73
2019-04-07T00:59:57.789Z,4.71
2019-04-07T01:00:57.846Z,4.71
2019-04-07T01:01:58.057Z,4.67
2019-04-07T01:02:58.271Z,4.63
2019-04-07T01:03:58.398Z,4.69
2019-04-07T01:04:58.361Z,4.74
2019-04-07T01:05:57.795Z,4.73
2019-04-07T01:06:57.824Z,4.74
2019-04-07T01:07:58.403Z,4.74
2019-04-07T01:08:57.921Z,4.71
2019-04-07T01:09:57.752Z,4.66
2019-04-07T01:10:58.015Z,4.64
2019-04-07T01:11:57.760Z,4.63
2019-04-07T01:12:57.838Z,4.62
2019-04-07T01:13:58.163Z,4.55
2019-04-07T01:14:57.830Z,4.59
2019-04-07T01:15:58.055Z,4.57
2019-04-07T01:16:58.298Z,4.57
2019-04-07T01:17:57.842Z,4.59
2019-04-07T01:18:57.999Z,4.60
2019-04-07T01:19:57.859Z,4.55
2019-04-07T01:20:58.312Z,4.54
2019-04-07T01:21:57.859Z,4.48
2019-04-07T01:23:57.873Z,4.41
2019-04-07T01:24:58.503Z,4.35
2019-04-07T01:25:58.485Z,4.29
2019-04-07T01:26:57.781Z,4.26
2019-04-07T01:27:57.824Z,4.22
2019-04-07T01:28:58.151Z,4.22
2019-04-07T01:29:58.010Z,4.30
2019-04-07T01:30:57.946Z,4.30
2019-04-07T01:31:58.427Z,4.32
2019-04-07T01:32:57.763Z,4.36
2019-04-07T01:33:58.667Z,4.36
2019-04-07T01:34:58.119Z,4.35
2019-04-07T01:35:57.750Z,4.33
2019-04-07T01:36:58.362Z,4.30
2019-04-07T01:37:58.318Z,4.32
2019-04-07T01:38:57.846Z,4.29
2019-04-07T01:39:58.063Z,4.25
2019-04-07T01:40:57.812Z,4.22
2019-04-07T01:41:58.399Z,4.22
2019-04-07T01:42:57.850Z,4.22
2019-04-07T01:43:57.768Z,4.19
2019-04-07T01:44:58.419Z,4.17
2019-04-07T01:45:57.754Z,4.12
2019-04-07T01:46:58.146Z,4.08
2019-04-07T01:47:58.416Z,4.06
2019-04-07T01:48:57.765Z,4.06
2019-04-07T01:49:57.848Z,4.06
2019-04-07T01:50:58.153Z,4.01
2019-04-07T01:51:57.790Z,4.01
2019-04-07T01:52:57.994Z,4.04
2019-04-07T01:53:57.757Z,4.00
2019-04-07T01:54:57.739Z,4.00
2019-04-07T01:55:57.823Z,3.99
2019-04-07T01:56:58.098Z,3.97
2019-04-07T01:57:57.794Z,4.03
2019-04-07T01:58:58.296Z,4.04
2019-04-07T01:59:58.195Z,4.07
2019-04-07T02:00:57.793Z,4.12
2019-04-07T02:01:58.105Z,4.17
2019-04-07T02:02:57.796Z,4.21
2019-04-07T02:03:58.432Z,4.19
2019-04-07T02:04:58.024Z,4.17
2019-04-07T02:06:01.739Z,4.14
2019-04-07T02:06:57.975Z,4.10
2019-04-07T02:07:57.817Z,4.08
2019-04-07T02:08:58.331Z,4.03
2019-04-07T02:09:57.815Z,4.06
2019-04-07T02:10:58.261Z,4.10
2019-04-07T02:11:58.345Z,4.10
2019-04-07T02:12:57.958Z,4.08
2019-04-07T02:13:58.380Z,4.04
2019-04-07T02:14:57.908Z,4.03
2019-04-07T02:15:57.915Z,3.97
2019-04-07T02:16:57.905Z,3.92
2019-04-07T02:17:58.207Z,3.85
2019-04-07T02:18:57.853Z,3.78
2019-04-07T02:19:57.845Z,3.76
2019-04-07T02:20:57.842Z,3.72
2019-04-07T02:21:58.282Z,3.68
2019-04-07T02:22:57.875Z,3.62
2019-04-07T02:23:57.842Z,3.59
2019-04-07T02:24:57.841Z,3.59
2019-04-07T02:25:58.187Z,3.57
2019-04-07T02:26:57.809Z,3.57
2019-04-07T02:27:57.887Z,3.61
2019-04-07T02:28:58.413Z,3.65
2019-04-07T02:29:57.946Z,3.72
2019-04-07T02:30:58.891Z,3.73
2019-04-07T02:31:58.482Z,3.76
2019-04-07T02:32:58.307Z,3.76
2019-04-07T02:33:57.825Z,3.77
2019-04-07T02:34:57.886Z,3.73
2019-04-07T02:36:13.284Z,3.68
2019-04-07T02:36:58.259Z,3.64
2019-04-07T02:37:58.018Z,3.61
2019-04-07T02:38:58.236Z,3.57
2019-04-07T02:39:58.726Z,3.51
2019-04-07T02:40:57.959Z,3.48
2019-04-07T02:41:57.857Z,3.47
2019-04-07T02:42:58.869Z,3.46
2019-04-07T02:43:57.875Z,3.46
2019-04-07T02:44:57.906Z,3.47
2019-04-07T02:45:57.978Z,3.51
2019-04-07T02:46:58.825Z,3.65
2019-04-07T02:47:57.967Z,3.74
2019-04-07T02:48:57.838Z,3.73
2019-04-07T02:49:57.830Z,3.72
2019-04-07T02:50:57.900Z,3.66
2019-04-07T02:51:57.829Z,3.62
2019-04-07T02:52:57.897Z,3.62
2019-04-07T02:53:58.419Z,3.64
2019-04-07T02:54:57.903Z,3.61
2019-04-07T02:55:57.849Z,3.58
2019-04-07T02:56:57.882Z,3.51
2019-04-07T02:57:58.246Z,3.44
2019-04-07T02:58:58.156Z,3.37
2019-04-07T02:59:57.964Z,3.35
2019-04-07T03:00:57.842Z,3.32
2019-04-07T03:01:57.869Z,3.26
2019-04-07T03:02:58.145Z,3.24
2019-04-07T03:03:57.917Z,3.21
2019-04-07T03:04:58.595Z,3.21
2019-04-07T03:05:58.267Z,3.20
2019-04-07T03:06:58.674Z,3.14
2019-04-07T03:07:57.925Z,3.16
2019-04-07T03:08:57.929Z,3.13
2019-04-07T03:09:57.869Z,3.14
2019-04-07T03:10:58.694Z,3.17
2019-04-07T03:11:57.967Z,3.13
2019-04-07T03:12:58.743Z,3.14
2019-04-07T03:13:58.603Z,3.13
2019-04-07T03:14:58.456Z,3.12
2019-04-07T03:15:57.958Z,3.16
2019-04-07T03:16:57.947Z,3.20
2019-04-07T03:17:57.955Z,3.14
2019-04-07T03:18:58.061Z,3.12
2019-04-07T03:19:57.897Z,3.09
2019-04-07T03:20:57.997Z,3.06
2019-04-07T03:21:57.914Z,3.06
2019-04-07T03:22:58.776Z,3.06
2019-04-07T03:23:58.575Z,3.03
2019-04-07T03:24:58.270Z,3.03
2019-04-07T03:25:58.209Z,3.01
2019-04-07T03:26:57.900Z,3.03
2019-04-07T03:27:57.924Z,2.99
2019-04-07T03:28:58.094Z,2.98
2019-04-07T03:29:58.939Z,2.96
2019-04-07T03:30:59.156Z,2.95
2019-04-07T03:31:59.663Z,2.95
2019-04-07T03:33:00.490Z,3.02
2019-04-07T03:33:59.503Z,3.12
2019-04-07T03:34:58.284Z,3.14
2019-04-07T03:36:02.081Z,3.21
2019-04-07T03:37:27.067Z,3.20
2019-04-07T03:37:59.099Z,3.14
2019-04-07T03:38:58.990Z,3.07
2019-04-07T03:39:58.776Z,3.05
2019-04-07T03:40:59.010Z,3.05
2019-04-07T03:41:59.039Z,2.98
2019-04-07T03:42:57.890Z,3.01
2019-04-07T03:43:57.954Z,3.05
2019-04-07T03:44:58.693Z,3.06
2019-04-07T03:45:57.985Z,3.07
2019-04-07T03:46:57.877Z,3.14
2019-04-07T03:47:58.843Z,3.14
2019-04-07T03:48:58.083Z,3.14
2019-04-07T03:49:57.833Z,3.14
2019-04-07T03:50:57.825Z,3.16
2019-04-07T03:51:58.193Z,3.13
2019-04-07T03:52:58.446Z,3.13
2019-04-07T03:53:57.906Z,3.16
2019-04-07T03:54:58.774Z,3.12
2019-04-07T03:55:57.914Z,3.09
2019-04-07T03:56:58.400Z,3.02
2019-04-07T03:57:57.907Z,2.99
2019-04-07T03:58:58.007Z,2.98
2019-04-07T03:59:57.940Z,2.99
2019-04-07T04:00:57.900Z,2.94
2019-04-07T04:01:57.957Z,2.91
2019-04-07T04:02:57.976Z,2.87
2019-04-07T04:03:59.172Z,2.84
2019-04-07T04:04:58.110Z,2.81
2019-04-07T04:05:57.852Z,2.77
2019-04-07T04:06:57.981Z,2.72
2019-04-07T04:07:58.078Z,2.68
2019-04-07T04:08:58.679Z,2.62
2019-04-07T04:09:58.301Z,2.61
2019-04-07T04:10:58.128Z,2.57
2019-04-07T04:11:57.956Z,2.54
2019-04-07T04:12:58.655Z,2.54
2019-04-07T04:13:58.286Z,2.47
2019-04-07T04:14:59.812Z,2.43
2019-04-07T04:15:58.867Z,2.44
2019-04-07T04:16:58.020Z,2.44
2019-04-07T04:17:57.993Z,2.46
2019-04-07T04:18:58.688Z,2.51
2019-04-07T04:19:58.662Z,2.52
2019-04-07T04:20:58.047Z,2.52
2019-04-07T04:21:58.887Z,2.52
2019-04-07T04:22:58.329Z,2.52
2019-04-07T04:23:57.925Z,2.51
2019-04-07T04:24:57.985Z,2.55
2019-04-07T04:25:58.955Z,2.57
2019-04-07T04:26:59.144Z,2.55
2019-04-07T04:27:59.109Z,2.57
2019-04-07T04:28:58.341Z,2.54
2019-04-07T04:29:57.964Z,2.54
2019-04-07T04:30:57.995Z,2.52
2019-04-07T04:31:57.980Z,2.50
2019-04-07T04:32:57.990Z,2.44
2019-04-07T04:33:58.099Z,2.51
2019-04-07T04:34:57.928Z,2.54
2019-04-07T04:35:57.955Z,2.55
2019-04-07T04:36:57.998Z,2.59
2019-04-07T04:37:57.931Z,2.68
2019-04-07T04:38:58.069Z,2.76
2019-04-07T04:39:57.930Z,2.77
2019-04-07T04:40:58.167Z,2.92
2019-04-07T04:41:57.923Z,3.10
2019-04-07T04:42:58.165Z,3.21
2019-04-07T04:43:58.143Z,3.24
2019-04-07T04:44:58.859Z,3.26
2019-04-07T04:45:57.926Z,3.22
2019-04-07T04:46:58.363Z,3.21
2019-04-07T04:48:58.736Z,3.14
2019-04-07T04:49:57.912Z,3.10
2019-04-07T04:50:58.076Z,3.09
2019-04-07T04:51:58.647Z,3.05
2019-04-07T04:52:57.972Z,2.99
2019-04-07T04:53:58.386Z,2.99
2019-04-07T04:54:57.877Z,3.01
2019-04-07T04:55:58.905Z,2.96
2019-04-07T04:56:57.950Z,2.95
2019-04-07T04:57:57.949Z,2.92
2019-04-07T04:58:58.483Z,2.90
2019-04-07T04:59:58.050Z,2.88
2019-04-07T05:00:58.883Z,2.85
2019-04-07T05:01:57.985Z,2.83
2019-04-07T05:02:58.177Z,2.79
2019-04-07T05:03:58.410Z,2.76
2019-04-07T05:04:57.979Z,2.77
2019-04-07T05:05:57.860Z,2.81
2019-04-07T05:06:58.098Z,2.81
2019-04-07T05:08:03.395Z,2.79
2019-04-07T05:08:58.119Z,2.77
2019-04-07T05:09:58.789Z,2.76
2019-04-07T05:10:57.935Z,2.73
2019-04-07T05:11:58.711Z,2.73
2019-04-07T05:12:58.184Z,2.72
2019-04-07T05:13:58.178Z,2.70
2019-04-07T05:14:58.117Z,2.79
2019-04-07T05:15:58.000Z,2.85
2019-04-07T05:16:58.605Z,2.92
2019-04-07T05:17:58.192Z,3.01
2019-04-07T05:18:58.506Z,3.16
2019-04-07T05:19:58.024Z,3.26
2019-04-07T05:20:58.242Z,3.29
2019-04-07T05:21:58.236Z,3.33
2019-04-07T05:22:58.627Z,3.33
2019-04-07T05:23:57.942Z,3.31
2019-04-07T05:24:58.175Z,3.26
2019-04-07T05:25:58.282Z,3.24
2019-04-07T05:26:58.523Z,3.21
2019-04-07T05:27:58.598Z,3.21
2019-04-07T05:28:58.281Z,3.21
2019-04-07T05:29:58.008Z,3.20
2019-04-07T05:30:58.030Z,3.20
2019-04-07T05:31:57.935Z,3.24
2019-04-07T05:32:59.017Z,3.24
2019-04-07T05:33:58.597Z,3.22
2019-04-07T05:34:58.014Z,3.21
2019-04-07T05:35:58.309Z,3.20
2019-04-07T05:36:58.700Z,3.22
2019-04-07T05:38:02.625Z,3.24
2019-04-07T05:38:57.957Z,3.24
2019-04-07T05:39:58.025Z,3.22
2019-04-07T05:40:58.653Z,3.22
2019-04-07T05:41:58.067Z,3.29
2019-04-07T05:42:58.693Z,3.33
2019-04-07T05:43:58.037Z,3.35
2019-04-07T05:44:58.533Z,3.37
2019-04-07T05:45:59.175Z,3.43
2019-04-07T05:46:58.210Z,3.46
2019-04-07T05:47:58.023Z,3.51
2019-04-07T05:48:57.949Z,3.50
2019-04-07T05:49:59.606Z,3.53
2019-04-07T05:51:00.476Z,3.58
2019-04-07T05:51:59.538Z,3.72
2019-04-07T05:52:58.744Z,3.78
2019-04-07T05:53:58.108Z,3.83
2019-04-07T05:54:57.960Z,3.92
2019-04-07T05:55:58.043Z,4.06
2019-04-07T05:57:00.370Z,4.24
2019-04-07T05:57:58.687Z,4.29
2019-04-07T05:58:58.141Z,4.37
2019-04-07T05:59:57.993Z,4.54
2019-04-07T06:00:58.688Z,4.66
2019-04-07T06:02:01.312Z,4.67
2019-04-07T06:02:58.257Z,4.75
2019-04-07T06:03:57.987Z,4.91
2019-04-07T06:04:59.489Z,5.00
2019-04-07T06:05:58.100Z,4.99
2019-04-07T06:06:58.158Z,5.02
2019-04-07T06:08:02.628Z,5.10
2019-04-07T06:08:58.617Z,5.21
2019-04-07T06:09:58.771Z,5.30
2019-04-07T06:11:01.563Z,5.46
2019-04-07T06:11:58.701Z,5.52
2019-04-07T06:12:57.965Z,5.56
2019-04-07T06:13:58.042Z,5.57
2019-04-07T06:14:58.496Z,5.60
2019-04-07T06:15:58.714Z,5.62
2019-04-07T06:16:58.189Z,5.66
2019-04-07T06:18:00.564Z,5.77
2019-04-07T06:18:58.867Z,5.91
2019-04-07T06:19:58.058Z,6.04
2019-04-07T06:20:58.528Z,6.23
2019-04-07T06:21:58.046Z,6.27
2019-04-07T06:22:58.454Z,6.22
2019-04-07T06:23:59.891Z,6.25
2019-04-07T06:25:00.766Z,6.25
2019-04-07T06:26:00.022Z,6.34
2019-04-07T06:26:58.673Z,6.43
2019-04-07T06:27:57.980Z,6.43
2019-04-07T06:28:58.821Z,6.48
2019-04-07T06:30:00.071Z,6.51
2019-04-07T06:31:00.209Z,6.68
2019-04-07T06:32:00.000Z,6.82
2019-04-07T06:32:58.098Z,6.81
2019-04-07T06:33:58.055Z,6.70
2019-04-07T06:34:58.429Z,6.60
2019-04-07T06:35:58.163Z,6.75
2019-04-07T06:36:58.214Z,6.91
2019-04-07T06:38:04.000Z,6.93
2019-04-07T06:38:58.221Z,6.87
2019-04-07T06:39:58.077Z,7.00
2019-04-07T06:41:00.859Z,7.09
2019-04-07T06:42:00.372Z,7.16
2019-04-07T06:42:58.033Z,7.24
2019-04-07T06:44:09.001Z,7.37
2019-04-07T06:45:00.347Z,7.35
2019-04-07T06:45:58.462Z,7.41
2019-04-07T06:47:01.303Z,7.51
2019-04-07T06:48:01.151Z,7.45
2019-04-07T06:48:58.014Z,7.44
2019-04-07T06:49:58.536Z,7.42
2019-04-07T06:50:59.749Z,7.52
2019-04-07T06:52:00.798Z,7.55
2019-04-07T06:52:58.835Z,7.67
2019-04-07T06:53:58.081Z,7.81
2019-04-07T06:54:58.019Z,7.82
2019-04-07T06:56:01.001Z,7.93
2019-04-07T06:56:58.099Z,8.15
2019-04-07T06:57:58.295Z,8.30
2019-04-07T06:58:58.176Z,8.42
2019-04-07T06:59:58.015Z,8.56
2019-04-07T07:01:01.355Z,8.65
2019-04-07T07:01:59.432Z,8.78
2019-04-07T07:02:58.918Z,8.79
2019-04-07T07:03:58.537Z,8.93
2019-04-07T07:04:58.289Z,9.02
2019-04-07T07:06:00.208Z,9.15
2019-04-07T07:06:58.018Z,9.27
2019-04-07T07:07:58.039Z,9.40
2019-04-07T07:08:58.375Z,9.50
2019-04-07T07:09:59.928Z,9.57
2019-04-07T07:10:58.457Z,9.57
2019-04-07T07:11:58.818Z,9.69
2019-04-07T07:13:00.966Z,9.89
2019-04-07T07:13:58.810Z,10.13
2019-04-07T07:14:58.299Z,10.21
2019-04-07T07:15:58.565Z,10.34
2019-04-07T07:16:58.735Z,10.45
2019-04-07T07:17:59.250Z,10.43
2019-04-07T07:19:01.028Z,10.32
2019-04-07T07:20:01.736Z,10.39
2019-04-07T07:21:01.704Z,10.57
2019-04-07T07:21:58.038Z,10.64
2019-04-07T07:23:00.380Z,10.68
2019-04-07T07:23:58.013Z,10.60
2019-04-07T07:25:00.282Z,10.83
2019-04-07T07:26:01.015Z,10.97
2019-04-07T07:26:58.104Z,11.14
2019-04-07T07:27:57.945Z,11.32
2019-04-07T07:28:58.435Z,11.33
2019-04-07T07:29:57.946Z,11.32
2019-04-07T07:30:57.953Z,11.31
2019-04-07T07:32:01.918Z,11.32
2019-04-07T07:32:58.008Z,11.39
2019-04-07T07:33:58.249Z,11.56
2019-04-07T07:34:58.708Z,11.73
2019-04-07T07:35:58.278Z,11.79
2019-04-07T07:36:58.902Z,11.73
2019-04-07T07:37:59.527Z,11.64
2019-04-07T07:39:01.687Z,11.82
2019-04-07T07:39:58.052Z,12.03
2019-04-07T07:41:01.002Z,12.18
2019-04-07T07:41:58.426Z,12.33
2019-04-07T07:42:58.978Z,12.42
2019-04-07T07:44:03.199Z,12.57
2019-04-07T07:44:58.307Z,12.65
2019-04-07T07:45:58.968Z,12.77
2019-04-07T07:46:58.212Z,12.72
2019-04-07T07:47:58.087Z,12.84
2019-04-07T07:49:01.086Z,12.87
2019-04-07T07:49:58.651Z,12.91
2019-04-07T07:50:58.106Z,12.92
2019-04-07T07:51:58.191Z,12.99
2019-04-07T07:52:58.253Z,13.07
2019-04-07T07:54:00.558Z,13.09
2019-04-07T07:55:00.767Z,13.24
2019-04-07T07:55:58.098Z,13.39
2019-04-07T07:56:58.107Z,13.46
2019-04-07T07:57:59.288Z,13.65
2019-04-07T07:59:00.032Z,13.84
2019-04-07T07:59:58.546Z,13.95
2019-04-07T08:01:00.150Z,13.88
2019-04-07T08:01:58.721Z,13.77
2019-04-07T08:02:58.298Z,13.76
2019-04-07T08:03:58.631Z,13.77
2019-04-07T08:04:59.280Z,13.75
2019-04-07T08:05:58.962Z,13.91
2019-04-07T08:06:58.050Z,13.91
2019-04-07T08:07:58.066Z,13.86
2019-04-07T08:09:09.844Z,13.81
2019-04-07T08:09:58.157Z,13.89
2019-04-07T08:11:00.654Z,13.98
2019-04-07T08:11:58.802Z,14.03
2019-04-07T08:12:58.549Z,14.06
2019-04-07T08:13:58.066Z,14.10
2019-04-07T08:14:58.641Z,14.20
2019-04-07T08:15:59.407Z,14.17
2019-04-07T08:17:00.226Z,14.29
2019-04-07T08:17:58.540Z,14.46
2019-04-07T08:19:00.214Z,14.60
2019-04-07T08:19:58.819Z,14.76
2019-04-07T08:20:58.896Z,15.00
2019-04-07T08:21:58.451Z,15.25
2019-04-07T08:22:58.107Z,15.47
2019-04-07T08:23:58.970Z,15.48
2019-04-07T08:24:58.815Z,15.61
2019-04-07T08:25:59.068Z,15.73
2019-04-07T08:26:59.093Z,15.87
2019-04-07T08:27:58.211Z,15.80
2019-04-07T08:28:59.003Z,15.80
2019-04-07T08:29:58.322Z,15.68
2019-04-07T08:30:58.696Z,15.55
2019-04-07T08:31:58.738Z,15.64
2019-04-07T08:33:00.272Z,15.61
2019-04-07T08:33:59.973Z,15.65
2019-04-07T08:35:02.677Z,15.73
2019-04-07T08:35:58.901Z,15.59
2019-04-07T08:36:58.498Z,15.64
2019-04-07T08:37:58.517Z,15.69
2019-04-07T08:38:58.489Z,15.90
2019-04-07T08:39:58.085Z,16.18
2019-04-07T08:40:58.646Z,16.41
2019-04-07T08:41:58.265Z,16.31
2019-04-07T08:42:58.320Z,16.18
2019-04-07T08:43:58.087Z,16.33
2019-04-07T08:45:00.309Z,16.27
2019-04-07T08:45:58.153Z,16.29
2019-04-07T08:46:58.985Z,16.36
2019-04-07T08:47:58.164Z,16.63
2019-04-07T08:48:58.104Z,16.87
2019-04-07T08:49:58.174Z,17.08
2019-04-07T08:51:00.451Z,17.31
2019-04-07T08:51:58.994Z,17.36
2019-04-07T08:52:58.962Z,17.33
2019-04-07T08:53:58.541Z,17.31
2019-04-07T08:54:58.171Z,17.05
2019-04-07T08:55:58.841Z,16.85
2019-04-07T08:56:58.517Z,16.84
2019-04-07T08:58:00.971Z,17.06
2019-04-07T08:58:58.114Z,17.14
2019-04-07T08:59:58.882Z,17.37
2019-04-07T09:00:58.559Z,17.53
2019-04-07T09:01:58.153Z,17.69
2019-04-07T09:03:03.709Z,17.92
2019-04-07T09:03:58.560Z,18.06
2019-04-07T09:04:58.173Z,18.09
2019-04-07T09:05:58.548Z,18.05
2019-04-07T09:07:00.675Z,17.99
2019-04-07T09:07:58.118Z,17.91
2019-04-07T09:08:58.198Z,17.99
2019-04-07T09:09:58.729Z,18.14
2019-04-07T09:10:58.238Z,18.18
2019-04-07T09:11:58.184Z,18.17
2019-04-07T09:13:01.742Z,18.03
2019-04-07T09:13:58.798Z,18.12
2019-04-07T09:14:58.365Z,18.25
2019-04-07T09:15:58.931Z,18.43
2019-04-07T09:16:59.123Z,18.54
2019-04-07T09:17:58.933Z,18.41
2019-04-07T09:19:03.761Z,18.16
2019-04-07T09:19:58.305Z,18.31
2019-04-07T09:20:58.106Z,18.50
2019-04-07T09:21:58.180Z,18.61
2019-04-07T09:22:58.302Z,18.61
2019-04-07T09:23:58.179Z,18.51
2019-04-07T09:24:58.879Z,18.43
2019-04-07T09:25:58.390Z,18.32
2019-04-07T09:26:58.819Z,18.09
2019-04-07T09:27:58.361Z,18.00
2019-04-07T09:28:58.715Z,18.02
2019-04-07T09:29:58.919Z,18.25
2019-04-07T09:31:01.111Z,18.51
2019-04-07T09:31:58.685Z,18.81
2019-04-07T09:32:58.798Z,18.94
2019-04-07T09:33:58.208Z,18.91
2019-04-07T09:34:58.122Z,18.79
2019-04-07T09:35:59.218Z,18.65
2019-04-07T09:36:59.000Z,18.40
2019-04-07T09:37:58.765Z,18.31
2019-04-07T09:39:01.819Z,18.40
2019-04-07T09:40:01.158Z,18.66
2019-04-07T09:40:58.443Z,18.86
2019-04-07T09:41:58.376Z,18.83
2019-04-07T09:43:00.956Z,18.99
2019-04-07T09:44:01.165Z,19.16
2019-04-07T09:44:58.521Z,19.08
2019-04-07T09:45:58.359Z,19.25
2019-04-07T09:46:58.625Z,19.51
2019-04-07T09:47:58.738Z,19.73
2019-04-07T09:48:58.752Z,19.85
2019-04-07T09:49:58.435Z,20.10
2019-04-07T09:51:02.394Z,20.34
2019-04-07T09:51:58.146Z,20.28
2019-04-07T09:52:58.213Z,20.28
2019-04-07T09:53:58.758Z,20.32
2019-04-07T09:54:58.647Z,20.27
2019-04-07T09:55:59.127Z,20.12
2019-04-07T09:56:58.804Z,19.90
2019-04-07T09:57:58.169Z,19.90
2019-04-07T09:58:58.154Z,19.84
2019-04-07T09:59:58.224Z,19.92
2019-04-07T10:00:58.464Z,20.18
2019-04-07T10:02:00.280Z,20.12
2019-04-07T10:02:58.143Z,19.95
2019-04-07T10:03:58.217Z,19.95
2019-04-07T10:04:58.149Z,20.06
2019-04-07T10:05:58.204Z,19.99
2019-04-07T10:06:58.222Z,19.99
2019-04-07T10:07:58.898Z,20.09
2019-04-07T10:08:58.831Z,20.20
2019-04-07T10:10:08.541Z,20.18
2019-04-07T10:10:58.332Z,20.07
2019-04-07T10:11:58.376Z,20.01
2019-04-07T10:12:58.074Z,20.07
2019-04-07T10:13:58.193Z,20.18
2019-04-07T10:14:58.337Z,20.42
2019-04-07T10:15:58.180Z,20.49
2019-04-07T10:16:58.173Z,20.31
2019-04-07T10:17:58.718Z,20.05
2019-04-07T10:18:58.215Z,20.18
2019-04-07T10:19:58.818Z,20.27
2019-04-07T10:20:58.749Z,20.28
2019-04-07T10:22:00.500Z,20.27
2019-04-07T10:22:58.224Z,20.36
2019-04-07T10:23:59.232Z,20.65
2019-04-07T10:24:58.341Z,20.88
2019-04-07T10:25:58.438Z,21.04
2019-04-07T10:26:58.817Z,21.06
2019-04-07T10:27:58.301Z,21.02
2019-04-07T10:28:58.251Z,21.02
2019-04-07T10:29:58.180Z,21.08
2019-04-07T10:30:58.599Z,21.06
2019-04-07T10:31:58.139Z,20.88
2019-04-07T10:32:58.450Z,20.75
2019-04-07T10:33:58.361Z,20.82
2019-04-07T10:34:59.169Z,20.88
2019-04-07T10:35:58.302Z,21.04
2019-04-07T10:36:59.950Z,21.05
2019-04-07T10:37:58.245Z,20.99
2019-04-07T10:38:58.195Z,21.05
2019-04-07T10:39:59.494Z,21.13
2019-04-07T10:40:59.357Z,21.01
2019-04-07T10:41:58.901Z,20.79
2019-04-07T10:42:58.450Z,20.87
2019-04-07T10:43:58.984Z,20.69
2019-04-07T10:44:58.389Z,20.87
2019-04-07T10:45:58.719Z,20.45
2019-04-07T10:46:58.137Z,20.64
2019-04-07T10:47:58.168Z,20.86
2019-04-07T10:48:59.058Z,20.91
2019-04-07T10:50:03.975Z,20.70
2019-04-07T10:50:58.996Z,20.46
2019-04-07T10:51:59.268Z,20.41
2019-04-07T10:52:58.253Z,20.18
2019-04-07T10:53:58.420Z,20.27
2019-04-07T10:54:58.420Z,20.53
2019-04-07T10:55:58.258Z,20.65
2019-04-07T10:56:58.192Z,20.57
2019-04-07T10:57:58.497Z,20.77
2019-04-07T10:58:58.334Z,20.86
2019-04-07T10:59:58.121Z,21.04
2019-04-07T11:00:58.667Z,20.91
2019-04-07T11:01:58.209Z,20.79
2019-04-07T11:02:58.176Z,20.83
2019-04-07T11:03:58.240Z,20.99
2019-04-07T11:04:58.153Z,21.20
2019-04-07T11:05:58.285Z,21.32
2019-04-07T11:06:58.643Z,21.49
2019-04-07T11:07:58.750Z,21.47
2019-04-07T11:08:58.953Z,21.10
2019-04-07T11:09:58.914Z,21.06
2019-04-07T11:10:58.192Z,21.01
2019-04-07T11:11:58.797Z,20.97
2019-04-07T11:12:58.249Z,20.97
2019-04-07T11:13:58.767Z,21.06
2019-04-07T11:14:58.968Z,20.91
2019-04-07T11:15:59.124Z,20.88
2019-04-07T11:17:00.345Z,21.09
2019-04-07T11:17:58.231Z,21.05
2019-04-07T11:18:58.575Z,20.91
2019-04-07T11:19:59.036Z,20.65
2019-04-07T11:20:58.191Z,20.45
2019-04-07T11:21:58.189Z,20.39
2019-04-07T11:22:58.265Z,20.28
2019-04-07T11:23:58.934Z,20.27
2019-04-07T11:24:58.985Z,20.45
2019-04-07T11:25:58.267Z,20.56
2019-04-07T11:26:58.218Z,20.49
2019-04-07T11:27:58.299Z,20.30
2019-04-07T11:28:58.276Z,20.25
2019-04-07T11:29:58.439Z,20.34
2019-04-07T11:30:58.522Z,20.39
2019-04-07T11:31:58.296Z,20.50
2019-04-07T11:32:58.889Z,20.57
2019-04-07T11:33:58.839Z,20.80
2019-04-07T11:34:58.488Z,20.97
2019-04-07T11:35:58.515Z,21.25
2019-04-07T11:36:58.216Z,21.50
2019-04-07T11:37:58.435Z,21.75
2019-04-07T11:38:58.551Z,21.86
2019-04-07T11:39:59.010Z,21.83
2019-04-07T11:40:58.208Z,21.73
2019-04-07T11:41:59.027Z,21.67
2019-04-07T11:42:58.888Z,21.64
2019-04-07T11:43:58.663Z,21.51
2019-04-07T11:44:58.564Z,21.45
2019-04-07T11:46:02.221Z,21.72
2019-04-07T11:46:58.282Z,21.82
2019-04-07T11:47:59.080Z,21.38
2019-04-07T11:48:59.002Z,21.16
2019-04-07T11:49:59.196Z,21.10
2019-04-07T11:50:58.759Z,21.13
2019-04-07T11:51:58.223Z,21.27
2019-04-07T11:52:58.303Z,21.32
2019-04-07T11:53:58.834Z,21.38
2019-04-07T11:54:58.297Z,21.42
2019-04-07T11:56:58.967Z,21.28
2019-04-07T11:58:09.868Z,21.49
2019-04-07T11:58:59.041Z,21.72
2019-04-07T11:59:58.307Z,21.97
2019-04-07T12:00:59.198Z,21.87
2019-04-07T12:01:58.605Z,21.60
2019-04-07T12:02:58.233Z,21.36
2019-04-07T12:03:59.810Z,21.17
2019-04-07T12:04:58.944Z,21.16
2019-04-07T12:05:58.252Z,21.17
2019-04-07T12:06:58.304Z,21.05
2019-04-07T12:07:58.798Z,20.94
2019-04-07T12:08:58.929Z,20.88
2019-04-07T12:09:58.485Z,21.08
2019-04-07T12:11:02.178Z,21.32
2019-04-07T12:11:58.351Z,21.54
2019-04-07T12:12:59.115Z,21.79
2019-04-07T12:13:58.705Z,21.75
2019-04-07T12:14:58.876Z,21.51
2019-04-07T12:15:58.270Z,21.24
2019-04-07T12:17:00.310Z,20.90
2019-04-07T12:17:59.116Z,20.72
2019-04-07T12:18:59.076Z,20.61
2019-04-07T12:19:59.098Z,20.57
2019-04-07T12:21:00.906Z,20.57
2019-04-07T12:21:58.255Z,20.61
2019-04-07T12:22:58.329Z,20.88
2019-04-07T12:23:58.370Z,20.84
2019-04-07T12:25:01.710Z,20.83
2019-04-07T12:25:58.995Z,20.91
2019-04-07T12:27:00.729Z,21.16
2019-04-07T12:27:58.251Z,21.22
2019-04-07T12:28:58.326Z,21.25
2019-04-07T12:29:58.254Z,21.31
2019-04-07T12:30:58.871Z,21.38
2019-04-07T12:31:58.334Z,21.68
2019-04-07T12:32:58.621Z,21.60
2019-04-07T12:33:58.537Z,21.60
2019-04-07T12:34:58.327Z,21.79
2019-04-07T12:35:58.614Z,22.02
2019-04-07T12:37:02.425Z,22.17
2019-04-07T12:37:59.536Z,22.19
2019-04-07T12:38:58.549Z,22.19
2019-04-07T12:39:58.268Z,22.23
2019-04-07T12:41:11.442Z,22.24
2019-04-07T12:41:59.452Z,22.54
2019-04-07T12:42:59.156Z,22.67
2019-04-07T12:43:58.334Z,22.63
2019-04-07T12:44:58.340Z,22.45
2019-04-07T12:45:59.310Z,22.36
2019-04-07T12:46:58.369Z,22.34
2019-04-07T12:47:58.381Z,22.36
2019-04-07T12:48:58.695Z,22.46
2019-04-07T12:49:58.420Z,22.38
2019-04-07T12:50:58.468Z,22.21
2019-04-07T12:51:59.033Z,22.49
2019-04-07T12:53:02.177Z,22.34
2019-04-07T12:53:58.565Z,22.39
2019-04-07T12:54:59.289Z,22.56
2019-04-07T12:56:00.820Z,22.83
2019-04-07T12:56:58.258Z,22.84
2019-04-07T12:57:58.333Z,22.67
2019-04-07T12:58:59.012Z,22.82
2019-04-07T12:59:58.334Z,23.11
2019-04-07T13:01:06.221Z,23.13
2019-04-07T13:02:00.813Z,23.24
2019-04-07T13:02:58.553Z,23.30
2019-04-07T13:03:59.033Z,23.28
2019-04-07T13:05:00.535Z,23.45
2019-04-07T13:05:59.073Z,23.68
2019-04-07T13:06:58.818Z,23.31
2019-04-07T13:07:58.337Z,23.37
2019-04-07T13:08:58.450Z,23.19
2019-04-07T13:10:00.255Z,22.84